sensor_id;sensor_type;location;lat;lon;timestamp;temperature;humidity
38456;DHT22;24237;50.106;20.014;2022-07-22T00:02:07;23.50;1.00
38456;DHT22;24237;50.106;20.014;2022-07-22T00:04:33;23.40;1.00
38456;DHT22;24237;50.106;20.014;2022-07-22T00:07:00;23.60;1.00
38456;DHT22;24237;50.106;20.014;2022-07-22T00:09:26;23.70;1.00
38456;DHT22;24237;50.106;20.014;2022-07-22T00:11:52;23.40;1.00
38456;DHT22;24237;50.106;20.014;2022-07-22T00:14:22;23.60;1.00
38456;DHT22;24237;50.106;20.014;2022-07-22T00:16:47;23.40;1.00
38456;DHT22;24237;50.106;20.014;2022-07-22T00:19:13;23.20;1.00
38456;DHT22;24237;50.106;20.014;2022-07-22T00:21:39;23.30;1.00
38456;DHT22;24237;50.106;20.014;2022-07-22T00:24:05;22.90;86.30
38456;DHT22;24237;50.106;20.014;2022-07-22T00:26:31;22.80;99.90
38456;DHT22;24237;50.106;20.014;2022-07-22T00:28:57;22.60;1.00
38456;DHT22;24237;50.106;20.014;2022-07-22T00:31:23;22.50;1.00
38456;DHT22;24237;50.106;20.014;2022-07-22T00:33:48;22.50;16.30
38456;DHT22;24237;50.106;20.014;2022-07-22T00:36:26;22.30;1.00
38456;DHT22;24237;50.106;20.014;2022-07-22T00:38:51;22.40;1.00
38456;DHT22;24237;50.106;20.014;2022-07-22T00:41:17;22.50;1.00
38456;DHT22;24237;50.106;20.014;2022-07-22T00:44:01;22.50;1.00
38456;DHT22;24237;50.106;20.014;2022-07-22T00:46:27;22.50;1.00
38456;DHT22;24237;50.106;20.014;2022-07-22T00:48:54;22.50;1.00
38456;DHT22;24237;50.106;20.014;2022-07-22T00:51:22;22.60;1.00
38456;DHT22;24237;50.106;20.014;2022-07-22T00:53:49;22.80;99.90
38456;DHT22;24237;50.106;20.014;2022-07-22T00:56:15;22.90;99.90
38456;DHT22;24237;50.106;20.014;2022-07-22T00:58:41;22.80;99.90
38456;DHT22;24237;50.106;20.014;2022-07-22T01:01:07;22.80;1.00
38456;DHT22;24237;50.106;20.014;2022-07-22T01:03:34;22.80;99.90
38456;DHT22;24237;50.106;20.014;2022-07-22T01:06:00;22.80;1.00
38456;DHT22;24237;50.106;20.014;2022-07-22T01:08:26;22.50;1.00
38456;DHT22;24237;50.106;20.014;2022-07-22T01:10:51;22.40;8.20
38456;DHT22;24237;50.106;20.014;2022-07-22T01:13:17;22.20;99.90
38456;DHT22;24237;50.106;20.014;2022-07-22T01:15:46;22.10;99.90
38456;DHT22;24237;50.106;20.014;2022-07-22T01:18:11;22.30;99.90
38456;DHT22;24237;50.106;20.014;2022-07-22T01:20:37;22.10;1.00
38456;DHT22;24237;50.106;20.014;2022-07-22T01:23:03;21.90;99.90
38456;DHT22;24237;50.106;20.014;2022-07-22T01:25:29;21.90;99.90
38456;DHT22;24237;50.106;20.014;2022-07-22T01:27:54;22.20;1.00
38456;DHT22;24237;50.106;20.014;2022-07-22T01:30:20;22.20;99.90
38456;DHT22;24237;50.106;20.014;2022-07-22T01:32:46;22.00;1.00
38456;DHT22;24237;50.106;20.014;2022-07-22T01:35:12;22.00;1.00
38456;DHT22;24237;50.106;20.014;2022-07-22T01:37:41;22.00;1.00
38456;DHT22;24237;50.106;20.014;2022-07-22T01:40:07;21.90;1.00
38456;DHT22;24237;50.106;20.014;2022-07-22T01:42:33;21.90;99.90
38456;DHT22;24237;50.106;20.014;2022-07-22T01:44:58;22.20;1.00
38456;DHT22;24237;50.106;20.014;2022-07-22T01:47:27;22.20;1.00
38456;DHT22;24237;50.106;20.014;2022-07-22T01:49:53;22.20;1.00
38456;DHT22;24237;50.106;20.014;2022-07-22T01:52:19;22.00;99.90
38456;DHT22;24237;50.106;20.014;2022-07-22T01:54:47;21.90;99.90
38456;DHT22;24237;50.106;20.014;2022-07-22T01:57:13;22.10;99.90
38456;DHT22;24237;50.106;20.014;2022-07-22T01:59:42;22.00;99.90
38456;DHT22;24237;50.106;20.014;2022-07-22T02:02:07;22.00;99.90
38456;DHT22;24237;50.106;20.014;2022-07-22T02:04:33;22.10;99.90
38456;DHT22;24237;50.106;20.014;2022-07-22T02:07:02;22.10;1.00
38456;DHT22;24237;50.106;20.014;2022-07-22T02:09:27;22.30;1.00
38456;DHT22;24237;50.106;20.014;2022-07-22T02:11:53;22.10;1.00
38456;DHT22;24237;50.106;20.014;2022-07-22T02:14:19;22.00;1.00
38456;DHT22;24237;50.106;20.014;2022-07-22T02:16:44;21.90;1.00
38456;DHT22;24237;50.106;20.014;2022-07-22T02:19:10;21.80;1.00
38456;DHT22;24237;50.106;20.014;2022-07-22T02:21:35;21.80;1.00
38456;DHT22;24237;50.106;20.014;2022-07-22T02:24:03;21.80;99.90
38456;DHT22;24237;50.106;20.014;2022-07-22T02:26:28;21.90;99.90
38456;DHT22;24237;50.106;20.014;2022-07-22T02:28:54;21.90;99.90
38456;DHT22;24237;50.106;20.014;2022-07-22T02:31:20;21.90;99.90
38456;DHT22;24237;50.106;20.014;2022-07-22T02:33:46;21.90;99.90
38456;DHT22;24237;50.106;20.014;2022-07-22T02:36:12;21.90;99.90
38456;DHT22;24237;50.106;20.014;2022-07-22T02:38:38;22.20;99.90
38456;DHT22;24237;50.106;20.014;2022-07-22T02:41:04;22.60;99.90
38456;DHT22;24237;50.106;20.014;2022-07-22T02:43:32;22.70;99.50
38456;DHT22;24237;50.106;20.014;2022-07-22T02:45:58;22.60;99.90
38456;DHT22;24237;50.106;20.014;2022-07-22T02:48:26;22.50;99.90
38456;DHT22;24237;50.106;20.014;2022-07-22T02:50:52;22.40;99.90
38456;DHT22;24237;50.106;20.014;2022-07-22T02:53:21;22.30;99.90
38456;DHT22;24237;50.106;20.014;2022-07-22T02:55:47;22.30;99.90
38456;DHT22;24237;50.106;20.014;2022-07-22T02:58:19;22.20;99.90
38456;DHT22;24237;50.106;20.014;2022-07-22T03:00:45;22.20;1.00
38456;DHT22;24237;50.106;20.014;2022-07-22T03:03:10;22.20;91.60
38456;DHT22;24237;50.106;20.014;2022-07-22T03:05:36;22.20;99.90
38456;DHT22;24237;50.106;20.014;2022-07-22T03:08:02;21.90;99.90
38456;DHT22;24237;50.106;20.014;2022-07-22T03:10:27;21.90;99.90
38456;DHT22;24237;50.106;20.014;2022-07-22T03:12:53;22.00;12.80
38456;DHT22;24237;50.106;20.014;2022-07-22T03:15:22;22.20;1.00
38456;DHT22;24237;50.106;20.014;2022-07-22T03:17:48;22.20;99.90
38456;DHT22;24237;50.106;20.014;2022-07-22T03:20:13;22.40;99.90
38456;DHT22;24237;50.106;20.014;2022-07-22T03:22:39;22.40;99.90
38456;DHT22;24237;50.106;20.014;2022-07-22T03:25:11;22.50;99.90
38456;DHT22;24237;50.106;20.014;2022-07-22T03:27:40;22.50;99.90
38456;DHT22;24237;50.106;20.014;2022-07-22T03:30:12;22.40;63.30
38456;DHT22;24237;50.106;20.014;2022-07-22T03:32:37;22.10;1.00
38456;DHT22;24237;50.106;20.014;2022-07-22T03:35:06;22.00;99.90
38456;DHT22;24237;50.106;20.014;2022-07-22T03:37:32;21.80;1.00
38456;DHT22;24237;50.106;20.014;2022-07-22T03:40:00;22.00;99.90
38456;DHT22;24237;50.106;20.014;2022-07-22T03:42:26;21.90;99.90
38456;DHT22;24237;50.106;20.014;2022-07-22T03:44:52;22.00;99.90
38456;DHT22;24237;50.106;20.014;2022-07-22T03:47:22;22.00;1.00
38456;DHT22;24237;50.106;20.014;2022-07-22T03:49:51;22.30;1.00
38456;DHT22;24237;50.106;20.014;2022-07-22T03:52:17;22.20;99.90
38456;DHT22;24237;50.106;20.014;2022-07-22T03:54:43;22.10;99.90
38456;DHT22;24237;50.106;20.014;2022-07-22T03:57:10;22.20;99.90
38456;DHT22;24237;50.106;20.014;2022-07-22T03:59:36;22.30;99.90
38456;DHT22;24237;50.106;20.014;2022-07-22T04:02:08;22.40;1.00
38456;DHT22;24237;50.106;20.014;2022-07-22T04:04:34;22.50;1.00
38456;DHT22;24237;50.106;20.014;2022-07-22T04:06:59;22.70;1.00
38456;DHT22;24237;50.106;20.014;2022-07-22T04:09:25;22.70;1.00
38456;DHT22;24237;50.106;20.014;2022-07-22T04:11:57;22.80;99.90
38456;DHT22;24237;50.106;20.014;2022-07-22T04:14:22;23.00;1.00
38456;DHT22;24237;50.106;20.014;2022-07-22T04:16:48;23.20;99.90
38456;DHT22;24237;50.106;20.014;2022-07-22T04:19:14;23.20;99.90
38456;DHT22;24237;50.106;20.014;2022-07-22T04:21:40;23.30;1.00
38456;DHT22;24237;50.106;20.014;2022-07-22T04:24:09;23.20;1.00
38456;DHT22;24237;50.106;20.014;2022-07-22T04:26:35;23.40;1.00
38456;DHT22;24237;50.106;20.014;2022-07-22T04:29:02;23.40;1.00
38456;DHT22;24237;50.106;20.014;2022-07-22T04:31:28;23.60;99.90
38456;DHT22;24237;50.106;20.014;2022-07-22T04:33:54;24.00;1.00
38456;DHT22;24237;50.106;20.014;2022-07-22T04:36:19;23.80;99.90
38456;DHT22;24237;50.106;20.014;2022-07-22T04:38:45;23.70;1.00
38456;DHT22;24237;50.106;20.014;2022-07-22T04:41:20;23.70;99.90
38456;DHT22;24237;50.106;20.014;2022-07-22T04:43:46;23.70;1.00
38456;DHT22;24237;50.106;20.014;2022-07-22T04:46:11;23.60;99.90
38456;DHT22;24237;50.106;20.014;2022-07-22T04:48:37;23.60;99.90
38456;DHT22;24237;50.106;20.014;2022-07-22T04:51:11;23.70;1.00
38456;DHT22;24237;50.106;20.014;2022-07-22T04:53:40;23.70;99.90
38456;DHT22;24237;50.106;20.014;2022-07-22T04:56:06;23.80;99.90
38456;DHT22;24237;50.106;20.014;2022-07-22T04:58:32;24.10;1.00
38456;DHT22;24237;50.106;20.014;2022-07-22T05:00:58;24.20;99.90
38456;DHT22;24237;50.106;20.014;2022-07-22T05:03:24;24.20;1.00
38456;DHT22;24237;50.106;20.014;2022-07-22T05:05:53;24.40;99.90
38456;DHT22;24237;50.106;20.014;2022-07-22T05:08:19;24.50;99.90
38456;DHT22;24237;50.106;20.014;2022-07-22T05:10:45;24.60;20.40
38456;DHT22;24237;50.106;20.014;2022-07-22T05:13:30;24.80;1.00
38456;DHT22;24237;50.106;20.014;2022-07-22T05:15:56;24.80;1.00
38456;DHT22;24237;50.106;20.014;2022-07-22T05:18:22;24.90;99.90
38456;DHT22;24237;50.106;20.014;2022-07-22T05:20:50;25.10;99.90
38456;DHT22;24237;50.106;20.014;2022-07-22T05:23:16;25.20;99.90
38456;DHT22;24237;50.106;20.014;2022-07-22T05:25:44;25.40;77.80
38456;DHT22;24237;50.106;20.014;2022-07-22T05:28:10;25.40;1.00
38456;DHT22;24237;50.106;20.014;2022-07-22T05:30:38;25.70;1.00
38456;DHT22;24237;50.106;20.014;2022-07-22T05:33:04;25.70;1.00
38456;DHT22;24237;50.106;20.014;2022-07-22T05:35:30;25.60;1.00
38456;DHT22;24237;50.106;20.014;2022-07-22T05:37:56;25.50;1.00
38456;DHT22;24237;50.106;20.014;2022-07-22T05:40:21;25.80;1.00
38456;DHT22;24237;50.106;20.014;2022-07-22T05:42:47;26.40;99.90
38456;DHT22;24237;50.106;20.014;2022-07-22T05:45:13;26.30;27.70
38456;DHT22;24237;50.106;20.014;2022-07-22T05:47:39;26.40;1.00
38456;DHT22;24237;50.106;20.014;2022-07-22T05:50:05;26.60;1.00
38456;DHT22;24237;50.106;20.014;2022-07-22T05:52:31;26.30;1.00
38456;DHT22;24237;50.106;20.014;2022-07-22T05:54:59;26.40;1.00
38456;DHT22;24237;50.106;20.014;2022-07-22T05:57:25;26.40;99.90
38456;DHT22;24237;50.106;20.014;2022-07-22T05:59:51;26.40;99.90
38456;DHT22;24237;50.106;20.014;2022-07-22T06:02:16;26.60;99.90
38456;DHT22;24237;50.106;20.014;2022-07-22T06:04:42;26.70;99.90
38456;DHT22;24237;50.106;20.014;2022-07-22T06:07:08;27.10;99.90
38456;DHT22;24237;50.106;20.014;2022-07-22T06:09:33;26.90;95.40
38456;DHT22;24237;50.106;20.014;2022-07-22T06:11:59;26.80;80.70
38456;DHT22;24237;50.106;20.014;2022-07-22T06:14:25;27.00;21.40
38456;DHT22;24237;50.106;20.014;2022-07-22T06:16:50;27.20;1.00
38456;DHT22;24237;50.106;20.014;2022-07-22T06:19:16;26.90;1.00
38456;DHT22;24237;50.106;20.014;2022-07-22T06:21:42;26.80;1.00
38456;DHT22;24237;50.106;20.014;2022-07-22T06:24:07;26.70;1.00
38456;DHT22;24237;50.106;20.014;2022-07-22T06:26:33;26.50;1.00
38456;DHT22;24237;50.106;20.014;2022-07-22T06:28:59;26.50;1.00
38456;DHT22;24237;50.106;20.014;2022-07-22T06:31:24;26.80;1.00
38456;DHT22;24237;50.106;20.014;2022-07-22T06:33:50;26.60;1.00
38456;DHT22;24237;50.106;20.014;2022-07-22T06:36:16;26.50;1.00
38456;DHT22;24237;50.106;20.014;2022-07-22T06:38:43;26.40;1.00
38456;DHT22;24237;50.106;20.014;2022-07-22T06:41:09;26.40;1.00
38456;DHT22;24237;50.106;20.014;2022-07-22T06:43:35;26.50;1.00
38456;DHT22;24237;50.106;20.014;2022-07-22T06:46:01;26.30;1.00
38456;DHT22;24237;50.106;20.014;2022-07-22T06:48:27;26.20;1.00
38456;DHT22;24237;50.106;20.014;2022-07-22T06:50:53;26.20;1.00
38456;DHT22;24237;50.106;20.014;2022-07-22T06:53:19;26.20;1.00
38456;DHT22;24237;50.106;20.014;2022-07-22T06:55:45;26.30;1.00
38456;DHT22;24237;50.106;20.014;2022-07-22T06:58:11;26.30;1.00
38456;DHT22;24237;50.106;20.014;2022-07-22T07:00:36;26.40;1.00
38456;DHT22;24237;50.106;20.014;2022-07-22T07:03:02;26.50;1.00
38456;DHT22;24237;50.106;20.014;2022-07-22T07:05:28;26.60;1.00
38456;DHT22;24237;50.106;20.014;2022-07-22T07:07:55;26.70;1.00
38456;DHT22;24237;50.106;20.014;2022-07-22T07:10:21;27.00;1.00
38456;DHT22;24237;50.106;20.014;2022-07-22T07:12:47;27.30;99.90
38456;DHT22;24237;50.106;20.014;2022-07-22T07:15:13;26.90;99.90
38456;DHT22;24237;50.106;20.014;2022-07-22T07:17:39;26.90;1.00
38456;DHT22;24237;50.106;20.014;2022-07-22T07:20:05;26.90;1.00
38456;DHT22;24237;50.106;20.014;2022-07-22T07:22:32;26.80;1.00
38456;DHT22;24237;50.106;20.014;2022-07-22T07:25:02;27.00;1.00
38456;DHT22;24237;50.106;20.014;2022-07-22T07:27:28;27.20;99.90
38456;DHT22;24237;50.106;20.014;2022-07-22T07:29:54;27.30;99.90
38456;DHT22;24237;50.106;20.014;2022-07-22T07:32:19;27.30;99.90
38456;DHT22;24237;50.106;20.014;2022-07-22T07:34:45;27.30;99.90
38456;DHT22;24237;50.106;20.014;2022-07-22T07:37:11;27.40;99.90
38456;DHT22;24237;50.106;20.014;2022-07-22T07:39:36;27.60;99.90
38456;DHT22;24237;50.106;20.014;2022-07-22T07:42:02;27.80;99.90
38456;DHT22;24237;50.106;20.014;2022-07-22T07:44:30;27.90;99.90
38456;DHT22;24237;50.106;20.014;2022-07-22T07:46:56;28.10;99.90
38456;DHT22;24237;50.106;20.014;2022-07-22T07:49:22;28.40;99.90
38456;DHT22;24237;50.106;20.014;2022-07-22T07:51:48;28.70;57.00
38456;DHT22;24237;50.106;20.014;2022-07-22T07:54:16;28.80;30.70
38456;DHT22;24237;50.106;20.014;2022-07-22T07:56:45;28.80;3.90
38456;DHT22;24237;50.106;20.014;2022-07-22T07:59:14;28.70;8.80
38456;DHT22;24237;50.106;20.014;2022-07-22T08:01:43;28.70;1.00
38456;DHT22;24237;50.106;20.014;2022-07-22T08:04:09;28.50;1.00
38456;DHT22;24237;50.106;20.014;2022-07-22T08:06:35;28.10;14.30
38456;DHT22;24237;50.106;20.014;2022-07-22T08:09:00;28.10;27.70
38456;DHT22;24237;50.106;20.014;2022-07-22T08:11:29;28.40;27.80
38456;DHT22;24237;50.106;20.014;2022-07-22T08:14:20;28.50;36.50
38456;DHT22;24237;50.106;20.014;2022-07-22T08:16:46;28.90;5.90
38456;DHT22;24237;50.106;20.014;2022-07-22T08:19:12;29.00;1.00
38456;DHT22;24237;50.106;20.014;2022-07-22T08:21:38;29.10;1.00
38456;DHT22;24237;50.106;20.014;2022-07-22T08:24:03;29.30;1.00
38456;DHT22;24237;50.106;20.014;2022-07-22T08:26:29;29.70;1.00
38456;DHT22;24237;50.106;20.014;2022-07-22T08:28:55;29.60;1.00
38456;DHT22;24237;50.106;20.014;2022-07-22T08:31:21;29.60;1.00
38456;DHT22;24237;50.106;20.014;2022-07-22T08:33:46;29.60;1.00
38456;DHT22;24237;50.106;20.014;2022-07-22T08:36:12;29.40;1.00
38456;DHT22;24237;50.106;20.014;2022-07-22T08:38:38;29.00;1.00
38456;DHT22;24237;50.106;20.014;2022-07-22T08:41:13;28.90;1.00
38456;DHT22;24237;50.106;20.014;2022-07-22T08:43:39;28.80;7.50
38456;DHT22;24237;50.106;20.014;2022-07-22T08:46:07;28.70;16.90
38456;DHT22;24237;50.106;20.014;2022-07-22T08:48:36;28.10;63.30
38456;DHT22;24237;50.106;20.014;2022-07-22T08:51:03;28.30;94.40
38456;DHT22;24237;50.106;20.014;2022-07-22T08:53:32;28.40;86.80
38456;DHT22;24237;50.106;20.014;2022-07-22T08:55:58;28.50;92.40
38456;DHT22;24237;50.106;20.014;2022-07-22T08:58:29;28.50;98.40
38456;DHT22;24237;50.106;20.014;2022-07-22T09:01:14;28.30;99.90
38456;DHT22;24237;50.106;20.014;2022-07-22T09:03:57;28.30;99.90
38456;DHT22;24237;50.106;20.014;2022-07-22T09:06:25;28.60;99.90
38456;DHT22;24237;50.106;20.014;2022-07-22T09:09:00;28.80;91.40
38456;DHT22;24237;50.106;20.014;2022-07-22T09:11:28;29.20;55.40
38456;DHT22;24237;50.106;20.014;2022-07-22T09:13:55;29.10;34.60
38456;DHT22;24237;50.106;20.014;2022-07-22T09:16:41;29.00;40.40
38456;DHT22;24237;50.106;20.014;2022-07-22T09:19:07;28.90;59.80
38456;DHT22;24237;50.106;20.014;2022-07-22T09:21:35;29.10;47.10
38456;DHT22;24237;50.106;20.014;2022-07-22T09:24:03;29.00;65.90
38456;DHT22;24237;50.106;20.014;2022-07-22T09:26:33;29.00;77.30
38456;DHT22;24237;50.106;20.014;2022-07-22T09:29:18;29.00;69.80
38456;DHT22;24237;50.106;20.014;2022-07-22T09:31:50;29.10;77.50
38456;DHT22;24237;50.106;20.014;2022-07-22T09:34:28;29.40;54.20
38456;DHT22;24237;50.106;20.014;2022-07-22T09:36:59;29.50;31.40
38456;DHT22;24237;50.106;20.014;2022-07-22T09:39:32;29.70;32.70
38456;DHT22;24237;50.106;20.014;2022-07-22T09:41:59;29.90;22.10
38456;DHT22;24237;50.106;20.014;2022-07-22T09:44:25;30.20;1.00
38456;DHT22;24237;50.106;20.014;2022-07-22T09:46:51;30.20;1.00
38456;DHT22;24237;50.106;20.014;2022-07-22T09:49:37;30.30;1.00
38456;DHT22;24237;50.106;20.014;2022-07-22T09:52:05;30.40;1.00
38456;DHT22;24237;50.106;20.014;2022-07-22T09:54:32;30.90;1.00
38456;DHT22;24237;50.106;20.014;2022-07-22T09:56:59;31.20;1.00
38456;DHT22;24237;50.106;20.014;2022-07-22T09:59:25;30.80;1.00
38456;DHT22;24237;50.106;20.014;2022-07-22T10:01:54;30.80;1.00
38456;DHT22;24237;50.106;20.014;2022-07-22T10:04:21;31.10;1.00
38456;DHT22;24237;50.106;20.014;2022-07-22T10:06:50;31.10;1.00
38456;DHT22;24237;50.106;20.014;2022-07-22T10:09:17;30.80;1.00
38456;DHT22;24237;50.106;20.014;2022-07-22T10:11:43;30.70;1.00
38456;DHT22;24237;50.106;20.014;2022-07-22T10:14:14;30.90;1.00
38456;DHT22;24237;50.106;20.014;2022-07-22T10:16:42;31.30;99.90
38456;DHT22;24237;50.106;20.014;2022-07-22T10:19:08;31.40;99.90
